MMMM

General Francisco J. Mujica International Airport

Morelia, Mexico
TAF MMMM 231642Z 2318/2424 20010KT P6SM BKN030 BKN200 TEMPO 2322/2402 5SM TSRA BKN025CB FM240200 00000KT P6SM SCT080 BKN200 FM241800 24010KT P6SM SCT025 BKN250
Issued Valid From Valid To
Apr-23 @ 16:42 UTC
(6 hours ago)
Apr-23 @ 18:00 UTC
(5 hours ago)
Apr-25 @ 00:00 UTC
(-1 days ago)
Apr-23 @ 18:00 to Apr-24 @ 02:00
TAF MMMM 231642Z 2318/2424 20010KT P6SM BKN030 BKN200
Wind Visibility Clouds
200° at 10 knots Greater than 6 miles
  • Broken at 3,000' AGL
  • Broken at 20,000' AGL
Temporary Apr-23 @ 22:00 to Apr-24 @ 02:00
TEMPO 2322/2402 5SM TSRA BKN025CB
Visibility Clouds Conditions
5 miles
  • Broken at 2,500' AGL
  • Thunderstorm
  • Rain
From Apr-24 @ 02:00 to Apr-24 @ 18:00
FM240200 00000KT P6SM SCT080 BKN200
Visibility Clouds
Greater than 6 miles
  • Scattered at 8,000' AGL
  • Broken at 20,000' AGL
From Apr-24 @ 18:00 to Apr-25 @ 00:00
FM241800 24010KT P6SM SCT025 BKN250
Wind Visibility Clouds
240° at 10 knots Greater than 6 miles
  • Scattered at 2,500' AGL
  • Broken at 25,000' AGL
TAF MMMM 231642Z 2318/2424 20010KT P6SM BKN030 BKN200 TEMPO 2322/2402 5SM TSRA BKN025CB FM240200 00000KT P6SM SCT080 BKN200 FM241800 24010KT P6SM SCT025 BKN250
Issued Apr-23 @ 16:42 UTC
(6 hours ago)
Valid From Apr-23 @ 18:00 UTC
(5 hours ago)
Valid To Apr-25 @ 00:00 UTC
(-1 days ago)
Apr-23 @ 18:00 - Apr-24 @ 02:00
Wind Visibility
200° at 10 knots Greater than 6 miles
Clouds
  • Broken at 3,000' AGL
  • Broken at 20,000' AGL
Temporary Apr-23 @ 22:00 - Apr-24 @ 02:00
Clouds
  • Broken at 2,500' AGL
Conditions
  • Thunderstorm
  • Rain
From Apr-24 @ 02:00 - Apr-24 @ 18:00
Clouds
  • Scattered at 8,000' AGL
  • Broken at 20,000' AGL
From Apr-24 @ 18:00 - Apr-25 @ 00:00
Wind Visibility
240° at 10 knots Greater than 6 miles
Clouds
  • Scattered at 2,500' AGL
  • Broken at 25,000' AGL